Flight Track Log - Related Links

Times and Time Zones

All times are in EDT time to prevent confusion due to time zone crossing. See the N868DB flight status page for this flight to view local times or setup timezone preferences in your user account.

Time Position Orientation Groundspeed Altitude Reporting Facility
EDT Latitude Longitude Course Direction KTS MPH feet Rate Location/Type
Fri 01:48:13 PM 32.8333 -97.3667 355° North 158 182 1,300  Level Dallas / Fort Worth TRACON
Fri 01:49:19 PM 32.8969 -97.3733 355° North 251 289 4,200 3,281 Climbing Fort Worth Center
Fri 01:50:21 PM 32.9636 -97.4294 325° Northwest 278 320 8,300 4,161 Climbing Fort Worth Center
Fri 01:51:23 PM 33.0197 -97.5022 313° West 298 343 12,800 3,629 Climbing Fort Worth Center
Fri 01:52:25 PM 33.0531 -97.6150 289° West 341 392 15,800 2,758 Climbing Fort Worth Center
Fri 01:53:27 PM 33.0908 -97.7317 291° West 377 434 18,500 2,952 Climbing Fort Worth Center
Fri 01:54:29 PM 33.1333 -97.8608 291° West 387 445 21,900 2,613 Climbing Fort Worth Center
Fri 01:55:31 PM 33.1661 -97.9664 290° West 397 457 23,900 2,371 Climbing Fort Worth Center
Fri 01:56:33 PM 33.2139 -98.1211 290° West 409 471 26,800 2,304 Climbing Fort Worth Center
Fri 01:57:36 PM 33.2558 -98.2542 291° West 423 487 28,700 1,824 Climbing Fort Worth Center
Fri 01:58:38 PM 33.3033 -98.4008 291° West 447 514 30,600 1,452 Climbing Fort Worth Center
Fri 01:59:40 PM 33.3397 -98.5222 290° West 447 514 31,700 1,210 Climbing Fort Worth Center
Fri 02:00:42 PM 33.3931 -98.6964 290° West 462 532 33,100 1,403 Climbing Fort Worth Center
Fri 02:01:44 PM 33.4389 -98.8442 290° West 471 542 34,600 1,548 Climbing Fort Worth Center
Fri 02:02:46 PM 33.4825 -98.9883 290° West 469 540 36,300 1,694 Climbing Fort Worth Center
Fri 02:03:48 PM 33.5247 -99.1275 290° West 452 520 38,100 1,694 Climbing Fort Worth Center
Fri 02:04:50 PM 33.5683 -99.2619 291° West 442 509 39,800 1,452 Climbing Fort Worth Center
Fri 02:05:52 PM 33.6819 -99.3642 323° Northwest 432 497 41,100 960 Climbing Fort Worth Center
Fri 02:06:55 PM 33.7808 -99.4436 326° Northwest 430 495 41,800 576 Climbing Fort Worth Center
Fri 02:07:57 PM 33.8817 -99.5256 326° Northwest 435 501 42,300 387 Climbing Fort Worth Center
Fri 02:08:59 PM 33.9833 -99.6086 326° Northwest 440 506 42,600 290 Climbing Fort Worth Center
Fri 02:10:01 PM 34.0856 -99.6931 326° Northwest 445 512 42,900 194 Climbing Fort Worth Center
Fri 02:11:03 PM 34.1889 -99.7775 326° Northwest 446 513 43,000 48 Climbing Fort Worth Center
Fri 02:12:05 PM 34.3100 -99.8789 325° Northwest 445 512 43,000  Level Fort Worth Center
Fri 02:13:07 PM 34.4000 -99.9539 325° Northwest 438 504 43,000  Level Fort Worth Center
Fri 02:14:09 PM 34.5206 -100.0503 327° Northwest 434 499 43,000  Level Fort Worth Center
Fri 02:15:11 PM 34.6189 -100.1325 325° Northwest 434 499 43,000  Level Fort Worth Center
Fri 02:16:13 PM 34.7167 -100.2192 324° Northwest 432 497 43,000  Level Fort Worth Center
Fri 02:17:15 PM 34.8144 -100.3000 326° Northwest 430 495 43,000  Level Fort Worth Center
Fri 02:18:18 PM 34.9125 -100.3819 326° Northwest 427 491 43,000  Level Fort Worth Center
Fri 02:19:20 PM 35.0100 -100.4653 325° Northwest 426 490 43,000  Level Fort Worth Center
Fri 02:20:36 PM 35.1436 -100.5781 325° Northwest 427 491 43,000  Level Albuquerque Center
Fri 02:21:38 PM 35.2467 -100.6667 325° Northwest 430 495 43,000  Level Albuquerque Center
Fri 02:22:40 PM 35.3408 -100.7464 325° Northwest 431 496 43,000  Level Albuquerque Center
Fri 02:23:42 PM 35.4394 -100.8314 325° Northwest 431 496 43,000  Level Albuquerque Center
Fri 02:24:44 PM 35.5583 -100.9325 325° Northwest 432 497 43,000  Level Albuquerque Center
Fri 02:25:46 PM 35.6567 -101.0189 324° Northwest 434 499 43,000  Level Albuquerque Center
Fri 02:26:48 PM 35.7542 -101.1022 325° Northwest 434 499 43,000  Level Albuquerque Center
Fri 02:27:50 PM 35.8519 -101.1878 325° Northwest 434 499 43,000  Level Albuquerque Center
Fri 02:28:52 PM 35.9497 -101.2714 325° Northwest 433 498 43,000  Level Albuquerque Center
Fri 02:29:54 PM 36.0669 -101.3750 324° Northwest 433 498 43,000  Level Albuquerque Center
Fri 02:30:56 PM 36.1639 -101.4614 324° Northwest 433 498 43,000  Level Albuquerque Center
Fri 02:31:58 PM 36.2606 -101.5456 325° Northwest 432 497 43,000  Level Albuquerque Center
Fri 02:33:00 PM 36.3569 -101.6300 325° Northwest 429 494 43,000  Level Albuquerque Center
Fri 02:34:02 PM 36.4539 -101.7175 324° Northwest 429 494 43,000  Level Albuquerque Center
Fri 02:35:04 PM 36.5503 -101.8003 325° Northwest 428 493 43,000  Level Albuquerque Center
Fri 02:35:46 PM 36.6258 -101.8675 324° Northwest 428 493 43,000  Level Kansas City Center
Fri 02:36:46 PM 36.7161 -101.9483 324° Northwest 424 488 43,000  Level Kansas City Center
Fri 02:37:50 PM 36.8225 -102.0442 324° Northwest 423 487 43,000  Level Kansas City Center
Fri 02:38:50 PM 36.9125 -102.1244 325° Northwest 419 482 43,000  Level Kansas City Center
Fri 02:39:52 PM 37.0175 -102.2192 324° Northwest 418 481 43,000  Level Kansas City Center
Fri 02:40:56 PM 37.1072 -102.2989 325° Northwest 416 479 43,000  Level Kansas City Center
Fri 02:41:57 PM 37.1947 -102.3806 323° Northwest 415 478 43,000  Level Kansas City Center
Fri 02:43:00 PM 37.2986 -102.4733 325° Northwest 412 474 43,000  Level Kansas City Center
Fri 02:44:01 PM 37.3867 -102.5542 324° Northwest 412 474 43,000  Level Kansas City Center
Fri 02:45:02 PM 37.4906 -102.6494 324° Northwest 412 474 43,000  Level Kansas City Center
Fri 02:45:42 PM 37.5514 -102.7028 325° Northwest 409 471 43,000 -118 Level Denver Center
Fri 02:46:44 PM 37.6528 -102.7969 324° Northwest 409 471 42,800 -774 Descending Denver Center
Fri 02:47:46 PM 37.7400 -102.8772 324° Northwest 408 470 41,400 -1,548 Descending Denver Center
Fri 02:48:48 PM 37.8289 -102.9581 324° Northwest 408 470 39,600 -1,839 Descending Denver Center
Fri 02:49:50 PM 37.9306 -103.0522 324° Northwest 408 470 37,600 -1,790 Descending Denver Center
Fri 02:50:52 PM 38.0153 -103.1308 324° Northwest 400 460 35,900 -1,597 Descending Denver Center
Fri 02:51:54 PM 38.1000 -103.2122 323° Northwest 384 442 34,300 -1,659 Descending Denver Center
Fri 02:52:55 PM 38.1867 -103.2931 324° Northwest 385 443 32,500 -1,902 Descending Denver Center
Fri 02:53:57 PM 38.2958 -103.3947 324° Northwest 403 464 30,400 -1,935 Descending Denver Center
Fri 02:54:59 PM 38.3894 -103.4819 324° Northwest 413 475 28,500 -1,790 Descending Denver Center
Fri 02:56:01 PM 38.4831 -103.5706 323° Northwest 418 481 26,700 -1,790 Descending Denver Center
Fri 02:57:03 PM 38.5764 -103.6597 323° Northwest 418 481 24,800 -1,306 Descending Denver Center
Fri 02:58:05 PM 38.6689 -103.7481 323° Northwest 418 481 24,000 -726 Descending Denver Center
Fri 02:59:07 PM 38.7642 -103.8378 324° Northwest 420 483 23,300 -919 Descending Denver Center
Fri 03:00:09 PM 38.8694 -103.9397 323° Northwest 402 463 22,100 -968 Descending Denver Center
Fri 03:01:11 PM 38.9522 -104.0200 323° Northwest 386 444 21,300 -1,258 Descending Denver Center
Fri 03:02:13 PM 39.0322 -104.0986 323° Northwest 373 429 19,500 -1,790 Descending Denver Center
Fri 03:03:15 PM 39.0567 -104.2242 284° West 369 425 17,600 -1,765 Descending Denver Center
Fri 03:04:29 PM 39.0850 -104.3597 285° West 345 397 15,500 -1,358 Descending Denver Center
Fri 03:05:32 PM 39.1078 -104.4625 286° West 317 365 14,500 -816 Descending Denver Center
Fri 03:06:34 PM 39.1350 -104.5811 287° West 291 335 13,800 -726 Descending Denver Center
Fri 03:07:36 PM 39.1803 -104.6650 305° West 302 348 13,000 -919 Descending Denver Center
Fri 03:08:38 PM 39.2392 -104.7550 310° West 306 352 11,900 -1,073 Descending Denver Center
Fri 03:09:39 PM 39.2886 -104.8042 322° Northwest 296 341 10,800 -1,452 Descending Denver Center
Fri 03:10:42 PM 39.3775 -104.8411 342° North 260 299 8,900 -1,344 Descending Denver Center
Fri 03:11:44 PM 39.4447 -104.8447 358° North 244 281 8,000 -871 Descending Denver Center
Fri 03:12:46 PM 39.4969 -104.8467 358° North 189 217 7,100 -871 Descending Denver Center
Fri 03:13:48 PM 39.5414 -104.8497 357° North 154 177 6,200 -629 Descending Denver Center
Fri 03:14:50 PM 39.5717 -104.8517 357° North 115 132 5,800 -387 Descending Denver Center
Fri 03:16:00 PM 39.5701 -104.8493 123° Southeast  Level Estimated
Fri 03:23:00 PM 39.5701 -104.8493 123° Southeast  Level Estimated
Fri 03:24:00 PM 39.5701 -104.8493 248° West  Level Estimated

Login

Don't have an account? Register now (free) for customized features, flight alerts, and more!